AUDE TRAILS CATHARES - 19/05/2018

La Ronde d'Alycia 10 Km (490d+)

Signaler une erreur
Télécharger au format excel :
Télécharger au format pdf :

Pl Do. Nom - Surname Prénom - Name S-Cat /cat Club - Team TEMPS - Time Km/h /sx
1 271 JORISSEN ABEL MSE 1 BCAM 00:31:03 23,2 1
2 345 RABAT MICHEL MSE 2 NL 00:31:14 23,0 2
3 334 PITON HERVE MV1 1 NL 00:32:48 21,9 3
4 286 KACI SEBASTIEN MV1 2 SPORT 2000 LEZIGNAN / CARCASSONNE PAPY COACH 00:32:56 21,9 4
5 312 SANCHEZ GAETAN MV1 3 NL 00:33:43 21,4 5
6 218 RIGAUD JULIEN MV1 4 NL 00:33:59 21,2 6
7 275 LAFFONT CHRISTOPHE MV1 5 NL 00:34:18 21,0 7
8 347 BARON VINCENT MSE 3 NL 00:34:55 20,6 8
9 332 BONET JEROME MV1 6 NL 00:35:00 20,6 9
10 222 KAUFFMANN FRANCIS MV2 1 Team Trail 00:36:01 20,0 10
11 342 JAYMES JEREMY MSE 4 NL 00:36:51 19,5 11
12 182 PIRAT VIRGILE MV1 7 AS CARNOUX JOGGING 00:36:54 19,5 12
13 242 DESRUELLES MARTIN MJU 1 GINESTAS X TRAIL 00:38:33 18,7 13
14 754 BRIEU STEVE MV2 2 NL 00:39:15 18,3 14
15 238 PUGINIER SÉBASTIEN MV1 8 Fan Club Julien RIGAUD 00:39:15 18,3 15
16 277 LECLERCQ JULIEN MSE 5 NL 00:39:48 18,1 16
17 319 GENCE JEAN MV2 3 NL 00:41:15 17,4 17
18 335 PITON ANAIS FSE 1 NL 00:41:26 17,4 1
19 315 PLISSON FREDERIC MV1 9 NL 00:41:28 17,4 18
20 176 BONNET CAROLE FV1 1 NL 00:43:03 16,7 2
21 223 HATIN MILA FJU 1 ACP11 00:43:21 16,6 3
22 208 ROUQUIÉ ELODIE FSE 2 FOULEE 3 QUILLES 00:43:22 16,6 4
23 191 MARIN BRUNO MV3 1 NL 00:43:25 16,6 19
24 338 BERNARD SEBASTIEN MV1 10 NL 00:44:26 16,2 20
25 251 GARCIA MIQUEL AMANDINE FSE 3 GXTRAIL 00:44:47 16,1 5
26 165 METZINGER MANUEL MV3 2 STADE ATHL. SALANQUAIS BOMPAS 00:44:54 16,0 21
27 267 SEGURA GUILLAUME MSE 6 3T 00:45:00 16,0 22
28 313 SANCHEZ JULIA FSE 4 NL 00:45:15 15,9 6
29 303 ALONSO REMI   1 LS MEJJARIA 00:46:44 15,4 23
30 241 SARRET PATRICK MV2 4 NL 00:47:24 15,2 24
31 1218 VILLETTE JIMMY MSE 7 AIDE ET COMBAT 00:47:43 15,1 25
32 327 LOPEZ LAURENT MV1 11 NL 00:47:48 15,1 26
33 212 DUBOIS CHRISTOPHE MV1 12 FOULEE DES 3 QUILLES 00:48:38 14,8 27
34 230 ECHENNE ROBIN MSE 8 NL 00:48:52 14,7 28
35 316 SOTTERO FABIEN MSE 9 NL 00:49:24 14,6 29
36 258 BAIXAS GILBERT   2 3t 00:49:36 14,5 30
37 206 MONMARCHE CLAIRE FSE 5 NL 00:49:38 14,5 7
38 197 TOURNIE LUISA FSE 6 LA FOULÉE DES 3 QUILLES 00:49:39 14,5 8
39 340 GORGONI JEAN CLAUDE MV1 13 NL 00:49:39 14,5 31
40 333 BONET LAURENCE FV1 2 NL 00:50:00 14,4 9
41 244 COLETTE CHRISTELLE FV2 1 RUNNING 66 00:50:07 14,4 10
42 202 GIBERT CHRISTOPHE MV2 5 NL 00:50:11 14,3 32
43 177 BARSALOU CONSTANT MSE 10 Team RAS 11590 00:50:14 14,3 33
44 217 LETOURNEUR CENDRINE FV2 2 Aigles de Pau 00:50:17 14,3 11
45 314 LOURENCO NELSON MV1 14 NL 00:50:28 14,3 34
46 311 CADENE JOSIE FV2 3 NL 00:50:31 14,2 12
47 324 GARDES PASCAL MV1 15 NL 00:50:36 14,2 35
48 172 COR ALINE FV1 3 Fan 2 Trail 00:50:40 14,2 13
49 247 BERTRAN MARIE FV1 4 NL 00:50:40 14,2 14
50 248 BERTRAN YVAN MV1 16 NL 00:50:41 14,2 36
51 155 CALLIS CHRISTELLE FSE 7 3T 00:51:06 14,1 15
52 216 PROVENSOL SABINE FV1 5 LA FOULLEE DES 3 QUILLES 00:51:07 14,1 16
53 426 SOL MARIE JOSE FV1 6 Team Trail Thuir (3T) 00:51:08 14,1 17
54 265 ROELSTRAETE LUDOVIC MSE 11 3T 00:51:10 14,1 37
55 215 ENGRAND FABRICE MV2 6 NL 00:51:24 14,0 38
56 184 GHASSOUI FADELA FV1 7 AS CARNOUX JOGGING 00:51:26 14,0 18
57 250 DELOUCHE ANGELIQUE FV1 8 GINESTAS X TRAIL 00:52:26 13,7 19
58 207 QUOD CAROLINE FSE 8 NL 00:52:45 13,6 20
59 344 PUECH CAMILLE FV1 9 NL 00:53:13 13,5 21
60 221 CORNET TANGUY MV1 17 NL 00:53:21 13,5 39
61 260 HUG JEAN JACQUES MV3 3 ST PAUL DE FENOUILLET 00:53:31 13,4 40
62 229 BERAGUAS VÉRONIQUE FV2 4 YOU CAN TRAIL (ILLE SUR TET) 00:54:34 13,2 22
63 213 CLERMOND ELSA FV1 10 NL 00:54:34 13,2 23
64 262 TROCELLIER ISABELLE FV1 11 LES CLOCHE PIEDS 00:54:49 13,1 24
65 225 RICHEZ CYRIL MJU 2 NL 00:56:00 12,9 41
66 157 DUBOIS GERALDINE FV1 12 ASPTT AGEN 00:56:14 12,8 25
67 185 SOULIE GERARD MV2 7 AFCF 00:56:14 12,8 42
68 272 BENNES PATRICIA FV1 13 NL 00:56:27 12,8 26
69 256 ECHENNE CHRISTIAN MV3 4 NL 00:56:41 12,7 43
70 188 POTTS GWYN MV3 5 FOULEE 3 QUILLES 00:56:50 12,7 44
71 158 ESCUDER NATHALIE FV2 5 Team Trail Thuir (3T) 00:56:50 12,7 27
72 239 MARTINOLLE EVE FSE 9 NL 00:56:53 12,7 28
73 201 NUNEZ MARIE PIERRE FV2 6 GINESTAS X TRAIL 00:57:11 12,6 29
74 186 BOUAZZA CÉLINE FSE 10 NL 00:57:12 12,6 30
75 276 FORT GILLES MV2 8 NL 00:57:23 12,5 45
76 187 RIBAUT VERONIQUE FV2 7 NL 00:57:24 12,5 31
77 193 DEVERLY BERNARD MV3 6 AIDE ET COMBAT 00:57:27 12,5 46
78 195 CADENNE CHANTAL FV2 8 AIDE ET COMBAT 00:57:52 12,4 32
79 196 GOMEZ ERIC MV2 9 NL 00:57:52 12,4 47
80 211 SOLER FRANCIS MV5 1 J.N.M.-BUCADELS 00:57:54 12,4 48
81 292 ROUXEL REMI MSE 12 NL 00:57:54 12,4 49
82 291 ROUXEL LUCIE FSE 11 NL 00:57:55 12,4 33
83 200 GARCIA CAROLINE FSE 12 Ginestas X Trail 00:57:55 12,4 34
84 183 TRINQUIER ARIANE FV1 14 AS CARNOUX JOGGING 00:58:24 12,3 35
85 290 RUIZ ROMAIN MV1 18 NL 00:58:24 12,3 50
86 281 ANDRIEU KARINE FV1 15 Team papy coach 00:58:25 12,3 36
87 282 ROMERA KEVIN MSE 13 NL 00:58:26 12,3 51
88 220 SIGNE ALAIN MV1 19 NL 00:58:27 12,3 52
89 156 ERBS JESSICA FV1 16 NL 00:59:00 12,2 37
90 1217 SEPANIAK LAETITIA FSE 13 AIDE ET COMBAT 00:59:17 12,1 38
91 259 SADOURNY BENEDICTE FV1 17 NL 00:59:33 12,1 39
92 263 SADOURNY SANDRINE FV1 18 NL 00:59:33 12,1 40
93 204 MORIEUX VALÉRIE FV2 9 RUNNING 66 00:59:33 12,1 41
94 328 HURTAUD ALICIA FV1 19 NL 00:59:54 12,0 42
95 243 COLAS CORINNE FV1 20 RUNNING 66 01:00:17 11,9 43
96 246 LLUIS YOLANDE FV1 21 Lluis 01:00:42 11,9 44
97 180 PUYAL VERONIQUE FV2 10 NL 01:00:50 11,8 45
98 274 CLAIRON STEPHANIE FV1 22 NL 01:01:45 11,7 46
99 240 SARRET JEAN-CLAUDE MV4 1 NL 01:01:53 11,6 53
100 337 CLEMENT AGNES FV1 23 NL 01:02:29 11,5 47
101 264 SIMON MICHEL MV2 10 NL 01:02:43 11,5 54
102 190 SANCHEZ RAQUEL FSE 14 NL 01:02:43 11,5 48
103 237 JEAN-MARC PEYRE MV3 7 NL 01:02:46 11,5 55
104 209 MANCHON STEPHANE MV1 20 NL 01:03:00 11,4 56
105 210 MANCHON VIOLETTE FSE 15 NL 01:03:03 11,4 49
106 162 MIRAMONT SYLVIE FV2 11 AFCF de Foulayronnes 01:03:06 11,4 50
107 283 NAVARRO CÉCILE FSE 16 NL 01:03:24 11,4 51
108 346 SEXANO LAURE FV1 24 NL 01:03:52 11,3 52
109 179 OBER GUILLAUME MSE 14 NL 01:03:53 11,3 57
110 178 DOLMAZON ELSA FSE 17 Saint cham' atlhetic club 01:03:56 11,3 53
111 214 GUIRAUD MAGALI FSE 18 NL 01:04:08 11,2 54
112 339 DOUMERGUE CHRISTELLE FV1 25 NL 01:04:09 11,2 55
113 166 GARCIA AUGUSTE MV2 11 NL 01:04:24 11,2 58
114 266 SANCHEZ VANESSA FSE 19 NL 01:04:24 11,2 56
115 270 RAMIREZ SOPHIE FSE 20 NL 01:04:24 11,2 57
116 227 ROLAND CLAIRE FV1 26 NL 01:04:31 11,2 58
117 226 ROLAND THIERRY MV1 21 NL 01:04:31 11,2 59
118 231 VAN LEMBERGEN STÉPHANIE FSE 21 NL 01:04:38 11,1 59
119 318 MAVREL JEAN LUC MV1 22 NL 01:04:41 11,1 60
120 336 BONNET MAGALI FV1 27 NL 01:05:13 11,0 60
121 284 CANTON PASCALE FV1 28 NL 01:05:13 11,0 61
122 164 ROVIRA ANNA FV2 12 NL 01:05:38 11,0 62
123 249 RIVIERE LUCILE FSE 22 NL 01:05:55 10,9 63
124 285 KACI LUDIVINE FSE 23 NL 01:06:11 10,9 64
125 167 GARCIA REGINE FV2 13 NL 01:06:25 10,8 65
126 219 POIRETTE CORINNE FV1 29 Pipette Spar Team Cuxac d'Aude 01:08:35 10,5 66
127 245 PRIÉTO CHRISTELLE FV1 30 NL 01:09:14 10,4 67
128 308 ESCLARMONDE CAMILLE FSE 24 NL 01:10:08 10,3 68
129 307 ESCLARMONDE LAURENCE FV2 14 NL 01:10:10 10,3 69
130 233 PERINET MARIE FSE 25 LA FOULÉE DES 3 QUILLES 01:11:37 10,1 70
131 261 RODRIGUEZ LUCIE FSE 26 NL 01:11:41 10,0 71
132 175 LE HULUDUT FLORENCE FV1 31 NL 01:13:47 9,8 72
133 309 ESCLARMONDE PIERRE MSE 15 NL 01:13:50 9,7 61
134 153 KNAPPENBERG MARJORIE FSE 27 NL 01:13:59 9,7 73
135 169 MAURY AGNÈS FV1 32 NL 01:15:11 9,6 74
136 273 BOSTANDJI DIMITRI MV1 23 NL 01:15:28 9,5 62
137 203 QUENTIN HEIKE FV2 15 Lauftreff TSV Bienenbuettel 01:16:57 9,4 75
138 255 VILA BABETTE FSE 28 NL 01:18:36 9,2 76
139 253 MOUNDY LAETITIA FV1 33 NL 01:18:42 9,1 77
140 228 FAUGERE JEROME MSE 16 NL 01:18:42 9,1 63
141 234 GARRIDO EMILIE FSE 29 NL 01:18:43 9,1 78
142 306 ESCLARMONDE MARC MV2 12 NL 01:20:07 9,0 64
143 151 JOUBERT JESSICA FSE 30 NL 01:20:51 8,9 79
144 341 GORGONI JEAN CLAUDE MV1 24 NL 01:20:54 8,9 65
145 154 NGUYEN KIM-CHI FSE 31 NL 01:22:24 8,7 80
146 310 MORVAN SANDRINE FV1 34 NL 01:24:33 8,5 81
147 170 BEAUMONT ELODIE FSE 32 NL 01:26:08 8,4 82
148 287 PETIT EMILIE FSE 33 RAS - RUNNING À SALLELES 01:26:11 8,4 83
149 280 BIASUTTI STÉPHANIE FSE 34 NL 01:26:11 8,4 84
150 198 RIBERE AUDREY FSE 35 NL 01:26:12 8,4 85
151 171 BEAUMONT GEOFFREY MSE 17 NL 01:26:13 8,4 66
152 236 NAVARRO RENAUD MSE 18 NL 01:26:13 8,3 67
153 279 SANCHEZ DANIEL MSE 19 NL 01:26:16 8,3 68
154 199 RIBERE LIONEL MSE 20 NL 01:26:17 8,3 69
155 289 PETIT NORMAN MSE 21 RAS - RUNNING À SALLELES 01:26:17 8,3 70
156 302 MAZAROTTI JEAN LOUIS MV1 25 NL 01:26:17 8,3 71
157 301 MAZAROTTI STEPHANIE FV1 35 NL 01:26:18 8,3 86
158 254 BEAUMONT CAROLE FV2 16 NL 01:26:18 8,3 87
159 343 RAYBAUD CHRISTOPHE MSE 22 NL 01:26:18 8,3 72
160 159 DERNIS EMMANUELLE FV1 36 NL 01:28:24 8,1 88
161 160 LIUTKUS NADYA FV1 37 NL 01:28:26 8,1 89
162 161 LIUTKUS DARIUS MV1 26 NL 01:28:26 8,1 73
163 305 LABELLE CLAUDINE FV2 17 NL 01:31:46 7,8 90
164 304 MARCUSSI MICHEL MV2 13 NL 01:31:49 7,8 74
165 348 ROCHE GHISLAINE FV1 38 NL 01:56:03 6,2 91
166 194 DEVERLY VALÉRIE FV1 39 AIDE ET COMBAT 02:16:04 5,3 92
167 152 BRESSON MARIE FV1 0 3T team trail Thuir 00:00:00 ABD Abd
168 163 MOKDAD MABROUK MV2 0 AFCF 00:00:00 ABD Abd
169 168 PHILIPPE VIEILLEVIGNE MV1 0 NL 00:00:00 ABD Abd
170 173 GUEVEL CHANTAL FV2 0 3T 00:00:00 ABD Abd
171 174 GARRIGAUD MYRIAM FV2 0 NL 00:00:00 ABD Abd
172 181 AUGÉ ROSELINE FV3 0 AUGE 00:00:00 ABD Abd
173 192 LAMOLINAIRIE SOPHIE FSE 0 NL 00:00:00 ABD Abd
174 205 BROWN JESSICA FV1 0 NL 00:00:00 ABD Abd
175 224 KAUFFMANN NATHALIE FV1 0 NL 00:00:00 ABD Abd
176 232 MERCADAL MICKAEL MV1 0 NL 00:00:00 ABD Abd
177 235 LASSERRE MAXIME MSE 0 NL 00:00:00 ABD Abd
178 257 ECHENNE CHRISTINE FV3 0 NL 00:00:00 ABD Abd
179 268 CANET JEREMY MSE 0 NL 00:00:00 ABD Abd
180 269 PETEL NASTASIA FSE 0 NL 00:00:00 ABD Abd
181 278 BETEILLE MARY FV1 0 ASC CARCASSONNE 00:00:00 ABD Abd